Time;durP1;ratioP1;P1;durP2;ratioP2;P2;SDS_P1;SDS_P2;PMS_P1;PMS_P2;Temp;Humidity;BMP_temperature;BMP_pressure;BME280_temperature;BME280_humidity;BME280_pressure;Samples;Min_cycle;Max_cycle;Signal;HPM_P1;HPM_P2
2023/12/17 00:01:43;;;;;;;8.25;5.30;;;;;;;4.41;70.10;101340.69;5109494;28;20036;-69
2023/12/17 00:04:09;;;;;;;11.48;6.30;;;;;;;4.44;70.33;101336.31;5109237;28;20234;-69
2023/12/17 00:06:37;;;;;;;8.77;6.63;;;;;;;4.44;70.28;101335.44;5109304;28;20097;-68
2023/12/17 00:09:04;;;;;;;8.52;6.57;;;;;;;4.41;70.31;101325.81;5109625;28;20040;-68
2023/12/17 00:11:30;;;;;;;8.68;6.03;;;;;;;3.71;70.27;101201.47;5109210;28;20036;-69
2023/12/17 00:13:58;;;;;;;9.77;7.00;;;;;;;4.43;70.45;101302.19;5109521;28;20048;-69
2023/12/17 00:16:26;;;;;;;9.55;7.28;;;;;;;4.45;70.50;101305.69;5109152;28;20039;-68
2023/12/17 00:18:52;;;;;;;8.90;6.38;;;;;;;4.45;70.40;101295.19;5109043;28;20044;-69
2023/12/17 00:21:19;;;;;;;8.57;6.30;;;;;;;4.41;70.45;101312.69;5108993;28;20067;-68
2023/12/17 00:23:46;;;;;;;8.38;6.93;;;;;;;4.46;70.46;101315.31;5109004;28;20044;-68
2023/12/17 00:26:12;;;;;;;6.60;5.53;;;;;;;4.46;70.47;101310.06;5108623;28;20304;-68
2023/12/17 00:28:39;;;;;;;8.10;6.63;;;;;;;4.47;70.48;101315.31;5109053;28;20051;-69
2023/12/17 00:31:07;;;;;;;11.57;8.20;;;;;;;4.51;70.27;101315.31;5108839;28;20097;-68
2023/12/17 00:33:34;;;;;;;10.00;6.63;;;;;;;4.46;70.24;101313.56;5108935;28;20097;-68
2023/12/17 00:36:00;;;;;;;10.68;7.40;;;;;;;4.46;70.35;101300.44;5109016;28;20056;-68
2023/12/17 00:38:27;;;;;;;9.65;7.63;;;;;;;4.47;70.66;101298.69;5109275;28;20097;-68
2023/12/17 00:40:53;;;;;;;8.48;6.43;;;;;;;4.49;70.27;101302.19;5108777;28;20330;-69
2023/12/17 00:43:20;;;;;;;8.10;6.43;;;;;;;4.49;70.46;101315.31;5108438;28;20405;-69
2023/12/17 00:45:47;;;;;;;8.07;6.55;;;;;;;4.50;70.53;101322.31;5108961;28;20040;-69
2023/12/17 00:48:15;;;;;;;8.63;6.72;;;;;;;4.47;70.42;101325.81;5108616;28;20044;-68
2023/12/17 00:50:41;;;;;;;8.52;6.65;;;;;;;4.49;70.40;101317.94;5108335;28;20098;-68
2023/12/17 00:53:08;;;;;;;9.57;7.43;;;;;;;4.47;70.65;101331.06;5109034;28;20040;-68
2023/12/17 00:55:35;;;;;;;8.70;6.90;;;;;;;4.45;70.52;101330.19;5107645;28;20040;-69
2023/12/17 00:58:01;;;;;;;9.13;7.32;;;;;;;4.49;70.46;101342.44;5108498;28;20117;-67
2023/12/17 01:00:28;;;;;;;9.40;6.70;;;;;;;4.50;70.30;101340.69;5108308;28;20161;-68
2023/12/17 01:02:55;;;;;;;7.97;6.38;;;;;;;4.50;70.49;101351.19;5107701;28;20044;-68
2023/12/17 01:05:23;;;;;;;7.90;6.43;;;;;;;4.53;70.37;101352.94;5108310;28;20051;-68
2023/12/17 01:07:50;;;;;;;8.32;6.32;;;;;;;4.51;70.58;101355.56;5108219;28;20080;-69
2023/12/17 01:10:16;;;;;;;8.40;6.38;;;;;;;4.52;70.29;101356.44;5108208;28;20044;-69
2023/12/17 01:12:43;;;;;;;10.32;7.30;;;;;;;4.32;70.46;101332.78;5107926;28;20117;-68
2023/12/17 01:15:12;;;;;;;8.30;7.20;;;;;;;4.53;70.39;101369.59;5107793;28;20357;-68
2023/12/17 01:17:38;;;;;;;8.25;6.78;;;;;;;4.49;70.62;101362.56;5107809;28;20040;-68
2023/12/17 01:20:08;;;;;;;9.57;7.40;;;;;;;4.52;70.34;101354.69;5108049;28;20044;-68
2023/12/17 01:22:36;;;;;;;8.27;5.97;;;;;;;4.52;70.46;101344.19;5107962;28;20046;-68
2023/12/17 01:25:02;;;;;;;9.52;7.40;;;;;;;4.53;70.28;101348.56;5107587;28;20293;-68
2023/12/17 01:27:29;;;;;;;9.10;6.55;;;;;;;4.53;70.26;101353.81;5107580;28;20043;-68
2023/12/17 01:29:56;;;;;;;10.27;8.02;;;;;;;4.57;70.07;101339.81;5107847;28;20062;-68
2023/12/17 01:32:22;;;;;;;9.35;7.05;;;;;;;4.54;70.22;101339.81;5107483;28;20048;-69
2023/12/17 01:34:49;;;;;;;10.20;7.78;;;;;;;4.55;70.30;101341.56;5107698;28;20044;-69
2023/12/17 01:37:16;;;;;;;10.98;8.70;;;;;;;4.54;70.00;101338.94;5107366;28;20343;-68
2023/12/17 01:39:44;;;;;;;9.30;7.05;;;;;;;4.51;70.16;101344.19;5107393;28;20055;-68
2023/12/17 01:42:11;;;;;;;11.02;8.15;;;;;;;4.50;70.37;101348.56;5107769;28;20182;-68
2023/12/17 01:44:38;;;;;;;10.18;8.23;;;;;;;4.50;70.32;101340.69;5107824;28;20051;-68
2023/12/17 01:47:06;;;;;;;8.95;7.18;;;;;;;4.49;70.50;101342.44;5107267;28;20040;-68
2023/12/17 01:49:33;;;;;;;8.90;7.07;;;;;;;4.47;70.48;101348.56;5107453;28;20040;-69
2023/12/17 01:51:59;;;;;;;8.63;6.65;;;;;;;4.50;70.25;101356.44;5107415;28;20048;-68
2023/12/17 01:54:26;;;;;;;11.25;8.82;;;;;;;4.49;70.35;101359.94;5107045;28;20067;-68
2023/12/17 01:56:54;;;;;;;9.18;7.28;;;;;;;4.48;70.24;101352.94;5107647;28;20048;-68
2023/12/17 01:59:22;;;;;;;9.07;7.00;;;;;;;4.45;70.17;101343.31;5107322;28;20069;-69
2023/12/17 02:01:53;;;;;;;10.27;8.00;;;;;;;4.43;70.18;101349.44;5106895;28;20093;-69
2023/12/17 02:04:22;;;;;;;9.27;7.25;;;;;;;4.07;70.09;101274.09;5107465;28;20226;-69
2023/12/17 02:06:48;;;;;;;9.27;7.00;;;;;;;4.25;70.02;101282.03;5106848;28;20068;-68
2023/12/17 02:09:16;;;;;;;8.05;6.75;;;;;;;4.44;70.17;101311.81;5106807;28;20036;-69
2023/12/17 02:11:42;;;;;;;7.88;6.60;;;;;;;4.43;70.04;101312.69;5106530;28;20109;-69
2023/12/17 02:14:10;;;;;;;8.65;6.07;;;;;;;4.40;70.21;101297.81;5106061;28;20322;-69
2023/12/17 02:16:37;;;;;;;7.95;6.80;;;;;;;4.24;69.96;101290.78;5107200;28;20067;-69
2023/12/17 02:19:03;;;;;;;8.88;6.63;;;;;;;4.38;70.05;101310.06;5106629;28;20097;-69
2023/12/17 02:21:30;;;;;;;8.07;6.88;;;;;;;4.41;69.84;101309.19;5106728;28;20059;-69
2023/12/17 02:23:58;;;;;;;8.57;6.85;;;;;;;4.40;69.96;101318.81;5107081;28;20040;-69
2023/12/17 02:26:25;;;;;;;9.57;6.90;;;;;;;4.21;69.78;101282.91;5106725;28;20044;-69
2023/12/17 02:28:51;;;;;;;10.05;7.55;;;;;;;4.37;69.75;101313.56;5107089;28;20048;-68
2023/12/17 02:31:18;;;;;;;9.52;6.90;;;;;;;4.38;69.63;101320.56;5106986;28;20040;-68
2023/12/17 02:33:46;;;;;;;9.00;6.82;;;;;;;4.40;69.60;101315.31;5106654;28;20043;-68
2023/12/17 02:36:12;;;;;;;10.18;7.20;;;;;;;4.41;69.67;101323.19;5106587;28;20093;-68
2023/12/17 02:38:39;;;;;;;8.55;6.50;;;;;;;4.39;69.48;101319.69;5106257;28;20040;-69
2023/12/17 02:41:07;;;;;;;9.68;6.97;;;;;;;4.36;69.61;101306.56;5106155;28;20039;-69
2023/12/17 02:43:34;;;;;;;8.60;7.00;;;;;;;4.38;69.67;101312.69;5106165;28;20047;-69
2023/12/17 02:46:00;;;;;;;8.00;6.28;;;;;;;4.38;69.33;101310.06;5106432;28;20188;-69
2023/12/17 02:48:27;;;;;;;8.23;7.10;;;;;;;4.37;69.54;101303.06;5106397;28;20070;-69
2023/12/17 02:50:53;;;;;;;7.28;6.20;;;;;;;4.36;69.56;101305.69;5106604;28;20052;-69
2023/12/17 02:53:20;;;;;;;9.98;6.95;;;;;;;4.36;69.58;101298.66;5106551;28;20200;-69
2023/12/17 02:55:47;;;;;;;8.13;6.80;;;;;;;4.37;69.65;101303.06;5106242;28;20055;-69
2023/12/17 02:58:15;;;;;;;8.52;6.32;;;;;;;4.38;69.48;101296.94;5106516;28;20048;-69
2023/12/17 03:00:42;;;;;;;11.25;7.97;;;;;;;4.38;69.44;101298.69;5105988;28;20103;-69
2023/12/17 03:03:08;;;;;;;7.95;6.00;;;;;;;4.12;69.44;101254.00;5106077;28;20105;-69
2023/12/17 03:05:35;;;;;;;9.32;6.38;;;;;;;4.36;69.43;101300.41;5105867;28;20043;-69
2023/12/17 03:08:02;;;;;;;9.40;7.38;;;;;;;4.37;69.42;101296.91;5106313;28;20204;-70
2023/12/17 03:10:28;;;;;;;7.53;6.57;;;;;;;4.35;69.50;101294.28;5106073;28;20308;-69
2023/12/17 03:12:55;;;;;;;8.77;6.72;;;;;;;4.36;69.26;101303.03;5105998;28;20074;-69
2023/12/17 03:15:23;;;;;;;7.35;6.15;;;;;;;4.37;69.14;101294.28;5106150;28;20115;-69
2023/12/17 03:17:50;;;;;;;7.55;6.28;;;;;;;4.37;69.28;101283.78;5105985;28;20044;-69
2023/12/17 03:20:17;;;;;;;8.30;6.28;;;;;;;4.35;69.45;101288.16;5105973;28;20059;-69
2023/12/17 03:22:43;;;;;;;7.20;5.75;;;;;;;4.34;69.30;101292.53;5105550;28;20300;-69
2023/12/17 03:25:10;;;;;;;8.93;6.80;;;;;;;4.38;69.25;101296.06;5105649;28;20055;-69
2023/12/17 03:27:36;;;;;;;7.22;6.05;;;;;;;4.33;69.08;101282.03;5105593;28;20044;-69
2023/12/17 03:30:04;;;;;;;8.63;5.88;;;;;;;4.39;68.69;101285.56;5105859;28;20208;-69
2023/12/17 03:32:32;;;;;;;8.25;5.93;;;;;;;4.38;68.62;101293.44;5106125;28;20036;-69
2023/12/17 03:34:59;;;;;;;7.82;6.55;;;;;;;4.34;68.44;101281.16;5106082;28;20052;-69
2023/12/17 03:37:26;;;;;;;7.13;5.82;;;;;;;4.37;68.43;101265.41;5105518;28;20044;-69
2023/12/17 03:39:52;;;;;;;6.57;5.60;;;;;;;4.35;68.42;101264.53;5105547;28;20101;-69
2023/12/17 03:42:19;;;;;;;7.32;5.63;;;;;;;4.37;68.44;101266.28;5105936;28;20094;-69
2023/12/17 03:44:46;;;;;;;6.93;5.78;;;;;;;4.37;68.72;101242.66;5106270;28;20051;-68
2023/12/17 03:47:13;;;;;;;6.95;5.65;;;;;;;4.35;68.55;101246.16;5105809;28;20281;-69
2023/12/17 03:49:40;;;;;;;7.03;5.82;;;;;;;4.17;68.35;101192.75;5105764;28;20331;-69
2023/12/17 03:52:07;;;;;;;6.95;5.35;;;;;;;4.37;68.15;101234.78;5106277;28;20088;-69
2023/12/17 03:54:34;;;;;;;8.43;6.05;;;;;;;4.36;68.04;101235.66;5105631;28;20101;-68
2023/12/17 03:57:00;;;;;;;7.65;5.68;;;;;;;4.33;67.99;101251.41;5105354;28;20112;-69
2023/12/17 03:59:27;;;;;;;6.38;5.15;;;;;;;4.16;68.03;101211.13;5105617;28;20066;-69
2023/12/17 04:01:54;;;;;;;6.78;5.88;;;;;;;4.36;68.26;101233.03;5105788;28;20085;-69
2023/12/17 04:04:20;;;;;;;6.53;4.80;;;;;;;4.35;68.14;101227.78;5105295;28;20056;-69
2023/12/17 04:06:48;;;;;;;8.85;5.65;;;;;;;4.31;67.86;101228.66;5105688;28;20342;-69
2023/12/17 04:09:15;;;;;;;6.90;5.07;;;;;;;4.33;67.88;101240.03;5105592;28;20044;-69
2023/12/17 04:11:42;;;;;;;6.63;5.75;;;;;;;4.31;67.54;101239.16;5104983;28;20090;-69
2023/12/17 04:14:09;;;;;;;7.35;5.18;;;;;;;4.31;67.77;101252.28;5105710;28;20105;-69
2023/12/17 04:16:35;;;;;;;6.75;5.45;;;;;;;4.32;67.64;101244.41;5105456;28;20047;-69
2023/12/17 04:19:02;;;;;;;6.63;5.25;;;;;;;4.33;67.39;101240.03;5104249;28;20044;-69
2023/12/17 04:21:29;;;;;;;6.53;4.72;;;;;;;4.35;67.46;101235.66;5105647;28;20044;-69
2023/12/17 04:23:57;;;;;;;11.30;6.68;;;;;;;4.33;67.44;101229.53;5105220;28;20063;-69
2023/12/17 04:26:24;;;;;;;8.18;5.25;;;;;;;4.31;67.07;101228.66;5105305;28;20059;-69
2023/12/17 04:28:50;;;;;;;5.75;5.13;;;;;;;4.14;67.18;101195.38;5105329;28;20044;-68
2023/12/17 04:31:17;;;;;;;6.85;5.43;;;;;;;4.31;67.14;101247.91;5105578;28;20051;-68
2023/12/17 04:33:44;;;;;;;6.68;5.10;;;;;;;4.32;67.06;101218.16;5105552;28;20048;-69
2023/12/17 04:36:11;;;;;;;6.05;5.10;;;;;;;3.78;67.21;101156.00;5105063;28;20040;-69
2023/12/17 04:38:38;;;;;;;8.50;5.63;;;;;;;4.32;67.06;101235.66;5109162;28;20040;-69
2023/12/17 04:41:06;;;;;;;7.57;5.68;;;;;;;4.34;67.13;101226.91;5108576;28;20351;-69
2023/12/17 04:43:33;;;;;;;6.85;5.07;;;;;;;4.34;67.04;101219.03;5108485;28;20043;-69
2023/12/17 04:46:00;;;;;;;10.00;5.95;;;;;;;4.36;66.85;101221.66;5109001;28;20345;-69
2023/12/17 04:48:26;;;;;;;5.78;5.03;;;;;;;4.35;66.86;101222.53;5108472;28;20250;-68
2023/12/17 04:50:53;;;;;;;7.57;5.65;;;;;;;4.34;67.02;101232.16;5108603;28;20044;-69
2023/12/17 04:53:19;;;;;;;6.75;5.50;;;;;;;4.33;66.86;101235.66;5107718;28;20074;-69
2023/12/17 04:55:46;;;;;;;6.15;5.38;;;;;;;4.36;66.67;101224.28;5108828;28;20052;-69
2023/12/17 04:58:14;;;;;;;6.50;5.47;;;;;;;4.33;66.55;101240.91;5108176;28;20235;-69
2023/12/17 05:00:41;;;;;;;6.57;5.80;;;;;;;4.35;66.64;101233.03;5107841;28;20055;-68
2023/12/17 05:03:07;;;;;;;6.20;4.90;;;;;;;4.36;66.60;101235.66;5108052;28;20044;-69
2023/12/17 05:05:34;;;;;;;9.00;5.68;;;;;;;4.34;66.73;101241.78;5108383;28;20290;-69
2023/12/17 05:08:01;;;;;;;6.60;5.25;;;;;;;4.37;66.54;101240.03;5108039;28;20109;-69
2023/12/17 05:10:28;;;;;;;6.28;5.45;;;;;;;4.35;66.44;101231.28;5108538;28;20293;-69
2023/12/17 05:12:54;;;;;;;5.57;4.50;;;;;;;4.37;66.59;101231.28;5107796;28;20109;-69
2023/12/17 05:15:23;;;;;;;5.82;5.05;;;;;;;4.39;66.34;101230.41;5107841;28;20216;-69
2023/12/17 05:17:49;;;;;;;6.72;5.07;;;;;;;4.37;66.43;101226.03;5108360;28;20064;-69
2023/12/17 05:20:16;;;;;;;6.18;4.75;;;;;;;4.36;66.27;101227.78;5107511;28;20048;-68
2023/12/17 05:22:42;;;;;;;7.00;5.47;;;;;;;4.38;66.00;101249.66;5108146;28;20047;-68
2023/12/17 05:25:09;;;;;;;8.27;5.63;;;;;;;4.41;66.34;101256.66;5107651;28;20063;-68
2023/12/17 05:27:37;;;;;;;7.07;5.18;;;;;;;4.08;65.92;101194.50;5107897;28;20115;-68
2023/12/17 05:30:05;;;;;;;5.75;4.75;;;;;;;4.43;66.09;101258.41;5108125;28;20044;-68
2023/12/17 05:32:33;;;;;;;5.95;4.72;;;;;;;4.43;65.95;101262.78;5107808;28;20063;-68
2023/12/17 05:35:00;;;;;;;6.35;5.55;;;;;;;4.41;66.37;101267.19;5107679;28;20169;-68
2023/12/17 05:37:26;;;;;;;6.53;4.40;;;;;;;4.44;66.04;101261.91;5107428;28;20185;-68
2023/12/17 05:39:53;;;;;;;6.72;5.10;;;;;;;4.45;66.17;101261.91;5107695;28;20055;-68
2023/12/17 05:42:20;;;;;;;7.20;4.45;;;;;;;4.44;66.11;101259.28;5107288;28;20047;-68
2023/12/17 05:44:46;;;;;;;6.40;5.13;;;;;;;4.44;66.21;101249.66;5107577;28;20044;-68
2023/12/17 05:47:13;;;;;;;6.20;5.10;;;;;;;4.46;66.30;101236.53;5107366;28;20231;-69
2023/12/17 05:49:41;;;;;;;6.50;5.15;;;;;;;4.48;66.10;101250.53;5107216;28;20235;-68
2023/12/17 05:52:08;;;;;;;7.18;5.45;;;;;;;4.47;66.12;101262.81;5107124;28;20055;-68
2023/12/17 05:54:35;;;;;;;5.75;5.07;;;;;;;4.51;65.87;101257.53;5107600;28;20105;-68
2023/12/17 05:57:02;;;;;;;6.75;5.57;;;;;;;4.47;65.76;101257.53;5106230;28;20231;-68
2023/12/17 05:59:29;;;;;;;6.85;5.20;;;;;;;4.47;65.76;101256.66;5107423;28;20104;-68
2023/12/17 06:01:55;;;;;;;6.05;4.47;;;;;;;4.48;65.62;101258.41;5106148;28;20056;-68
2023/12/17 06:04:22;;;;;;;6.43;4.95;;;;;;;4.49;65.66;101268.06;5107121;28;20103;-69
2023/12/17 06:06:50;;;;;;;4.80;4.13;;;;;;;4.48;65.50;101255.78;5106867;28;20044;-68
2023/12/17 06:09:17;;;;;;;5.50;4.32;;;;;;;4.33;64.95;101240.91;5106872;28;20113;-69
2023/12/17 06:11:43;;;;;;;5.28;4.38;;;;;;;4.31;65.46;101240.03;5106576;28;20185;-69
2023/12/17 06:14:11;;;;;;;4.95;4.00;;;;;;;4.46;65.26;101265.44;5106998;28;20051;-68
2023/12/17 06:16:41;;;;;;;5.95;4.13;;;;;;;4.50;64.87;101280.31;5107216;28;20250;-68
2023/12/17 06:19:07;;;;;;;5.75;4.13;;;;;;;4.53;64.99;101282.94;5106841;28;20044;-69
2023/12/17 06:21:34;;;;;;;5.47;3.70;;;;;;;4.34;64.82;101247.91;5106450;28;20212;-68
2023/12/17 06:24:03;;;;;;;4.78;3.95;;;;;;;4.52;64.89;101290.81;5106458;28;20089;-69
2023/12/17 06:26:31;;;;;;;4.30;3.42;;;;;;;4.54;64.59;101287.31;5106475;28;20040;-69
2023/12/17 06:28:58;;;;;;;5.45;3.97;;;;;;;3.89;64.62;101175.25;5106718;28;20051;-69
2023/12/17 06:31:25;;;;;;;5.45;4.38;;;;;;;4.50;64.24;101296.06;5106406;28;20040;-68
2023/12/17 06:33:53;;;;;;;5.97;4.20;;;;;;;4.54;64.78;101294.31;5106680;28;20093;-68
2023/12/17 06:36:20;;;;;;;5.07;4.40;;;;;;;4.55;64.65;101307.44;5106632;28;20063;-68
2023/12/17 06:38:46;;;;;;;5.05;3.72;;;;;;;4.56;64.64;101297.81;5106349;28;20056;-69
2023/12/17 06:41:15;;;;;;;5.05;3.90;;;;;;;4.58;64.27;101301.31;5106283;28;20062;-69
2023/12/17 06:43:43;;;;;;;5.03;3.90;;;;;;;4.25;64.72;101257.53;5106125;28;20290;-69
2023/12/17 06:46:15;;;;;;;5.35;4.13;;;;;;;4.58;64.38;101298.69;5106444;28;20098;-69
2023/12/17 06:48:42;;;;;;;3.95;3.17;;;;;;;4.56;64.44;101296.06;5106329;28;20043;-68
2023/12/17 06:51:09;;;;;;;4.72;3.70;;;;;;;4.56;64.26;101296.06;5106338;28;20111;-69
2023/12/17 06:53:35;;;;;;;4.10;3.20;;;;;;;4.59;64.21;101303.06;5106332;28;20036;-69
2023/12/17 06:56:02;;;;;;;4.30;3.20;;;;;;;4.61;64.26;101290.81;5106208;28;20067;-69
2023/12/17 06:58:30;;;;;;;6.65;4.10;;;;;;;4.41;63.78;101248.78;5105945;28;20246;-69
2023/12/17 07:00:57;;;;;;;4.90;4.13;;;;;;;4.61;63.91;101275.94;5105944;28;20097;-69
2023/12/17 07:03:24;;;;;;;4.95;3.97;;;;;;;4.61;64.00;101277.69;5105827;28;20182;-69
2023/12/17 07:05:50;;;;;;;5.22;3.80;;;;;;;4.66;63.64;101265.41;5106144;28;20044;-69
2023/12/17 07:08:17;;;;;;;4.85;3.47;;;;;;;4.64;63.82;101261.91;5105731;28;20052;-69
2023/12/17 07:10:45;;;;;;;4.88;3.75;;;;;;;4.65;63.70;101264.53;5106299;28;20060;-69
2023/12/17 07:13:12;;;;;;;5.25;3.60;;;;;;;4.65;63.91;101267.16;5105465;28;20251;-69
2023/12/17 07:15:40;;;;;;;4.00;3.50;;;;;;;4.66;63.68;101252.28;5105736;28;20311;-69
2023/12/17 07:18:07;;;;;;;4.50;3.53;;;;;;;4.70;63.73;101246.16;5106012;28;20047;-69
2023/12/17 07:20:33;;;;;;;3.58;2.65;;;;;;;4.69;63.55;101250.53;5105602;28;20043;-69
2023/12/17 07:23:00;;;;;;;6.70;3.22;;;;;;;4.69;63.57;101255.78;5105839;28;20048;-69
2023/12/17 07:25:27;;;;;;;4.40;3.42;;;;;;;4.71;63.62;101251.41;5105600;28;20051;-68
2023/12/17 07:27:54;;;;;;;4.57;3.45;;;;;;;4.73;63.66;101256.66;5106101;28;20099;-69
2023/12/17 07:30:21;;;;;;;4.70;3.72;;;;;;;4.75;63.20;101274.16;5105802;28;20052;-69
2023/12/17 07:32:49;;;;;;;4.75;3.35;;;;;;;4.75;63.54;101278.53;5105850;28;20051;-69
2023/12/17 07:35:16;;;;;;;6.00;4.30;;;;;;;4.81;63.10;101268.03;5105811;28;20052;-69
2023/12/17 07:37:43;;;;;;;3.50;2.97;;;;;;;4.81;63.24;101266.28;5105721;28;20254;-69
2023/12/17 07:40:10;;;;;;;4.50;3.13;;;;;;;4.81;63.12;101282.03;5105416;28;20051;-69
2023/12/17 07:42:36;;;;;;;5.85;3.28;;;;;;;4.84;62.89;101285.53;5105647;28;20044;-69
2023/12/17 07:45:04;;;;;;;3.75;3.08;;;;;;;4.89;62.67;101282.06;5105479;28;20069;-69
2023/12/17 07:47:32;;;;;;;4.15;3.17;;;;;;;4.90;62.84;101267.19;5105331;28;20047;-69
2023/12/17 07:50:00;;;;;;;3.67;3.00;;;;;;;4.94;62.61;101266.28;5105953;28;20101;-69
2023/12/17 07:52:27;;;;;;;3.88;2.72;;;;;;;4.97;62.31;101272.41;5105641;28;20063;-69
2023/12/17 07:54:53;;;;;;;3.58;2.90;;;;;;;5.00;62.48;101282.03;5105321;28;20044;-69
2023/12/17 07:57:20;;;;;;;4.28;3.40;;;;;;;5.06;62.25;101269.75;5105355;28;20303;-69
2023/12/17 07:59:47;;;;;;;3.63;3.00;;;;;;;4.74;62.13;101193.63;5105566;28;20117;-69
2023/12/17 08:02:14;;;;;;;4.07;3.00;;;;;;;5.18;62.02;101254.84;5105300;28;20177;-69
2023/12/17 08:04:41;;;;;;;3.70;2.95;;;;;;;5.20;62.01;101253.97;5105577;28;20040;-69
2023/12/17 08:07:10;;;;;;;3.60;2.92;;;;;;;5.27;61.90;101249.56;5105342;28;20312;-69
2023/12/17 08:09:37;;;;;;;3.90;2.92;;;;;;;5.32;61.71;101248.66;5105457;28;20039;-69
2023/12/17 08:12:05;;;;;;;3.65;2.80;;;;;;;5.40;61.30;101244.25;5106607;28;20066;-69
2023/12/17 08:14:32;;;;;;;4.57;3.45;;;;;;;5.43;61.35;101246.00;5109100;28;20040;-69
2023/12/17 08:16:59;;;;;;;5.57;3.45;;;;;;;5.48;61.18;101235.44;5109488;28;20051;-69
2023/12/17 08:19:26;;;;;;;4.13;3.15;;;;;;;5.44;60.76;101200.41;5109781;28;20051;-69
2023/12/17 08:21:53;;;;;;;4.45;3.40;;;;;;;5.47;60.40;101217.91;5109145;28;20040;-69
2023/12/17 08:24:21;;;;;;;4.13;3.15;;;;;;;5.75;59.33;101240.56;5109061;28;20296;-69
2023/12/17 08:26:47;;;;;;;4.53;3.20;;;;;;;5.78;59.90;101237.91;5109061;28;20096;-68
2023/12/17 08:29:13;;;;;;;4.93;2.88;;;;;;;5.82;60.08;101249.31;5109036;28;20056;-69
2023/12/17 08:31:44;;;;;;;3.47;2.58;;;;;;;5.95;60.02;101261.50;5108767;28;20035;-69
2023/12/17 08:34:10;;;;;;;3.85;3.33;;;;;;;6.02;59.18;101245.66;5108897;28;20036;-69
2023/12/17 08:36:37;;;;;;;4.15;3.28;;;;;;;6.09;59.43;101251.75;5108937;28;20109;-69
2023/12/17 08:39:05;;;;;;;4.18;3.00;;;;;;;6.16;58.84;101248.19;5108858;28;20075;-69
2023/12/17 08:41:33;;;;;;;4.65;3.08;;;;;;;6.05;58.72;101200.03;5109025;28;20059;-69
2023/12/17 08:44:00;;;;;;;3.72;2.95;;;;;;;6.32;58.56;101236.66;5108430;28;20044;-69
2023/12/17 08:46:27;;;;;;;4.43;3.13;;;;;;;6.39;58.27;101241.00;5108734;28;20074;-69
2023/12/17 08:48:53;;;;;;;4.05;2.90;;;;;;;6.50;58.10;101218.97;5108607;28;20055;-70
2023/12/17 08:51:20;;;;;;;4.35;2.95;;;;;;;6.59;58.09;101226.78;5108328;28;20051;-69
2023/12/17 08:53:47;;;;;;;4.63;3.08;;;;;;;6.60;57.28;101231.16;5108580;28;20043;-69
2023/12/17 08:56:14;;;;;;;3.83;2.60;;;;;;;6.73;57.41;101243.34;5108443;28;20071;-69
2023/12/17 08:58:42;;;;;;;5.28;2.90;;;;;;;6.79;57.10;101245.91;5108579;28;20048;-70
2023/12/17 09:01:08;;;;;;;3.67;2.78;;;;;;;6.84;56.46;101217.78;5108153;28;20050;-69
2023/12/17 09:03:35;;;;;;;3.92;2.75;;;;;;;6.98;56.36;101209.72;5108024;28;20044;-69
2023/12/17 09:06:02;;;;;;;3.20;2.58;;;;;;;6.97;55.97;101215.91;5108348;28;20052;-69
2023/12/17 09:08:29;;;;;;;3.42;2.35;;;;;;;7.10;56.23;101217.50;5108304;28;20039;-69
2023/12/17 09:10:56;;;;;;;3.63;2.80;;;;;;;7.23;55.74;101221.75;5108258;28;20048;-69
2023/12/17 09:13:23;;;;;;;3.30;2.60;;;;;;;7.34;55.52;101221.66;5107642;28;20048;-69
2023/12/17 09:15:51;;;;;;;4.32;3.15;;;;;;;7.25;55.03;101201.50;5108175;28;20040;-69
2023/12/17 09:18:18;;;;;;;5.20;2.90;;;;;;;7.31;54.40;101184.72;5107976;28;20101;-69
2023/12/17 09:20:44;;;;;;;4.75;2.80;;;;;;;7.58;53.58;101225.72;5108016;28;20105;-69
2023/12/17 09:23:11;;;;;;;3.15;2.50;;;;;;;7.65;54.54;101223.00;5107179;28;20307;-70
2023/12/17 09:25:38;;;;;;;4.13;2.72;;;;;;;7.61;54.55;101183.47;5108271;28;20098;-69
2023/12/17 09:28:04;;;;;;;3.42;2.42;;;;;;;7.89;53.92;101212.97;5107919;28;20177;-70
2023/12/17 09:30:31;;;;;;;4.10;2.78;;;;;;;8.09;54.01;101210.03;5107798;28;20048;-69
2023/12/17 09:32:59;;;;;;;4.00;2.97;;;;;;;8.16;53.95;101204.63;5107785;28;20044;-70
2023/12/17 09:35:26;;;;;;;5.38;2.55;;;;;;;8.29;52.64;101208.81;5107659;28;20059;-69
2023/12/17 09:37:53;;;;;;;3.75;2.80;;;;;;;8.40;53.12;101208.66;5107667;28;20040;-69
2023/12/17 09:40:20;;;;;;;3.80;2.85;;;;;;;7.51;51.95;101031.47;5107348;28;20039;-69
2023/12/17 09:42:52;;;;;;;3.53;2.33;;;;;;;8.55;52.16;101195.16;5107464;28;20055;-69
2023/12/17 09:45:19;;;;;;;3.35;2.60;;;;;;;8.43;52.04;101170.72;5107247;28;20044;-69
2023/12/17 09:47:45;;;;;;;3.15;2.10;;;;;;;8.65;51.19;101201.16;5107241;28;20076;-70
2023/12/17 09:50:13;;;;;;;3.95;2.40;;;;;;;8.83;51.48;101192.03;5107383;28;20070;-70
2023/12/17 09:52:41;;;;;;;3.85;2.13;;;;;;;8.88;50.95;101188.38;5107371;28;20084;-70
2023/12/17 09:55:11;;;;;;;3.45;2.45;;;;;;;8.93;50.41;101191.81;5107354;28;20039;-69
2023/12/17 09:57:37;;;;;;;3.72;2.42;;;;;;;9.05;50.75;101206.56;5107350;28;20077;-70
2023/12/17 10:00:09;;;;;;;3.63;2.40;;;;;;;8.97;50.14;101203.22;5107350;28;20090;-69
2023/12/17 10:02:36;;;;;;;3.75;2.28;;;;;;;9.02;49.98;101197.81;5107024;28;20200;-70
2023/12/17 10:05:03;;;;;;;3.47;2.13;;;;;;;9.21;50.61;101193.94;5107076;28;20066;-69
2023/12/17 10:07:31;;;;;;;3.50;2.10;;;;;;;9.25;50.06;101185.03;5107154;28;20101;-69
2023/12/17 10:09:58;;;;;;;3.22;2.28;;;;;;;9.43;49.82;101179.41;5106481;28;20131;-69
2023/12/17 10:12:25;;;;;;;3.63;2.40;;;;;;;9.45;49.67;101177.59;5106851;28;20075;-69
2023/12/17 10:14:52;;;;;;;4.05;2.17;;;;;;;9.55;49.38;101180.91;5107497;28;20215;-69
2023/12/17 10:17:19;;;;;;;4.97;2.10;;;;;;;9.57;48.65;101181.75;5107188;28;20089;-70
2023/12/17 10:19:51;;;;;;;3.28;2.05;;;;;;;9.58;47.90;101167.59;5106921;28;20039;-69
2023/12/17 10:22:19;;;;;;;3.08;2.13;;;;;;;8.44;48.40;101014.81;5106595;28;20062;-69
2023/12/17 10:24:47;;;;;;;3.40;2.33;;;;;;;9.71;48.47;101171.72;5107005;28;20043;-69
2023/12/17 10:27:18;;;;;;;2.95;1.88;;;;;;;9.72;47.54;101160.22;5106596;28;20044;-69
2023/12/17 10:29:49;;;;;;;2.60;1.80;;;;;;;9.53;47.21;101156.25;5106712;28;20043;-69
2023/12/17 10:32:19;;;;;;;3.30;1.85;;;;;;;9.67;46.70;101169.16;5106960;28;20044;-70
2023/12/17 10:34:48;;;;;;;2.58;2.00;;;;;;;9.73;45.87;101167.25;5105590;28;20040;-70
2023/12/17 10:37:17;;;;;;;3.15;1.90;;;;;;;9.51;46.67;101124.50;5106647;28;20169;-70
2023/12/17 10:39:45;;;;;;;2.80;1.80;;;;;;;9.74;46.59;101131.06;5106774;28;20133;-70
2023/12/17 10:42:13;;;;;;;2.75;1.75;;;;;;;10.02;46.61;101152.44;5106166;28;20101;-69
2023/12/17 10:44:42;;;;;;;3.45;2.10;;;;;;;10.07;46.51;101151.44;5106346;28;20044;-70
2023/12/17 10:47:12;;;;;;;3.08;1.92;;;;;;;10.10;45.98;101153.13;5106099;28;20043;-69
2023/12/17 10:49:40;;;;;;;3.15;2.10;;;;;;;10.17;46.01;101154.72;5106156;28;20058;-69
2023/12/17 10:52:07;;;;;;;3.83;2.35;;;;;;;10.25;45.54;101158.06;5106030;28;20101;-70
2023/12/17 10:54:34;;;;;;;2.60;1.80;;;;;;;10.42;45.25;101139.06;5106347;28;20085;-69
2023/12/17 10:57:03;;;;;;;3.03;1.95;;;;;;;10.37;43.82;101111.81;5106212;28;20097;-69
2023/12/17 10:59:34;;;;;;;3.42;2.00;;;;;;;10.49;45.22;101141.50;5106144;28;20044;-69
2023/12/17 11:02:02;;;;;;;2.90;1.98;;;;;;;10.59;44.69;101147.44;5106121;28;20111;-69
2023/12/17 11:04:29;;;;;;;3.13;2.00;;;;;;;10.79;45.32;101141.63;5106072;28;20031;-69
2023/12/17 11:06:56;;;;;;;4.07;2.38;;;;;;;10.76;44.09;101137.25;5106084;28;20089;-69
2023/12/17 11:09:24;;;;;;;2.78;1.65;;;;;;;10.87;44.08;101134.31;5106401;28;20052;-70
2023/12/17 11:11:52;;;;;;;2.80;1.90;;;;;;;10.90;44.15;101140.41;5105773;28;20098;-70
2023/12/17 11:14:19;;;;;;;3.10;2.10;;;;;;;10.87;43.83;101143.16;5106272;28;20040;-69
2023/12/17 11:16:47;;;;;;;2.35;1.48;;;;;;;10.87;43.28;101129.00;5105746;28;20315;-69
2023/12/17 11:19:14;;;;;;;2.55;1.70;;;;;;;10.91;42.81;101130.66;5105717;28;20242;-70
2023/12/17 11:21:41;;;;;;;2.60;1.65;;;;;;;10.87;43.00;101129.88;5105726;28;20043;-69
2023/12/17 11:24:08;;;;;;;3.42;1.67;;;;;;;10.90;42.55;101118.31;5105904;28;20047;-69
2023/12/17 11:26:43;;;;;;;3.60;2.17;;;;;;;11.14;42.39;101114.94;5105834;28;20039;-69
2023/12/17 11:29:33;;;;;;;3.83;1.58;;;;;;;11.14;41.85;101108.78;5104566;28;20043;-69
2023/12/17 11:32:01;;;;;;;2.83;1.90;;;;;;;11.20;42.63;101104.16;5105738;28;20050;-69